createdAt,value
2023-02-22T00:01:28.333Z,46.33
2023-02-22T00:03:54.608Z,42.60
2023-02-22T00:06:24.887Z,35.60
2023-02-22T00:08:52.514Z,40.05
2023-02-22T00:11:20.464Z,39.75
2023-02-22T00:13:47.371Z,39.53
2023-02-22T00:16:14.832Z,40.90
2023-02-22T00:18:41.101Z,42.80
2023-02-22T00:21:10.620Z,40.30
2023-02-22T00:23:39.807Z,37.67
2023-02-22T00:26:09.780Z,36.70
2023-02-22T00:28:39.428Z,37.35
2023-02-22T00:31:07.584Z,35.33
2023-02-22T00:33:33.887Z,34.35
2023-02-22T00:36:00.280Z,32.22
2023-02-22T00:38:26.594Z,39.58
2023-02-22T00:40:53.150Z,37.70
2023-02-22T00:43:19.388Z,34.92
2023-02-22T00:45:45.718Z,49.40
2023-02-22T00:48:12.012Z,50.95
2023-02-22T00:50:38.279Z,38.08
2023-02-22T00:53:05.120Z,36.03
2023-02-22T00:55:32.875Z,37.75
2023-02-22T00:57:59.931Z,34.08
2023-02-22T01:00:27.666Z,35.58
2023-02-22T01:02:55.874Z,37.40
2023-02-22T01:05:24.443Z,38.10
2023-02-22T01:07:50.951Z,36.60
2023-02-22T01:10:19.444Z,33.05
2023-02-22T01:12:46.548Z,31.70
2023-02-22T01:15:12.820Z,33.22
2023-02-22T01:17:39.957Z,39.63
2023-02-22T01:20:13.062Z,33.13
2023-02-22T01:22:40.203Z,31.30
2023-02-22T01:25:07.442Z,37.08
2023-02-22T01:27:34.925Z,32.30
2023-02-22T01:30:01.671Z,36.20
2023-02-22T01:32:27.922Z,31.13
2023-02-22T01:34:55.492Z,31.70
2023-02-22T01:37:21.741Z,32.03
2023-02-22T01:39:47.981Z,31.67
2023-02-22T01:42:14.220Z,31.92
2023-02-22T01:44:41.523Z,32.70
2023-02-22T01:47:11.246Z,32.50
2023-02-22T01:49:40.341Z,34.93
2023-02-22T01:52:08.788Z,35.35
2023-02-22T01:54:37.560Z,35.22
2023-02-22T01:57:08.066Z,36.95
2023-02-22T01:59:36.309Z,30.60
2023-02-22T02:02:04.528Z,37.95
2023-02-22T02:04:31.000Z,37.72
2023-02-22T02:07:00.064Z,36.90
2023-02-22T02:09:31.673Z,34.45
2023-02-22T02:12:00.661Z,36.20
2023-02-22T02:14:27.253Z,35.72
2023-02-22T02:16:53.858Z,37.42
2023-02-22T02:19:29.314Z,39.80
2023-02-22T02:22:04.522Z,39.03
2023-02-22T02:24:42.645Z,38.00
2023-02-22T02:27:09.264Z,40.72
2023-02-22T02:29:38.531Z,39.28
2023-02-22T02:32:15.622Z,41.60
2023-02-22T02:34:44.715Z,40.58
2023-02-22T02:37:12.594Z,41.70
2023-02-22T02:39:49.253Z,43.95
2023-02-22T02:42:18.391Z,42.40
2023-02-22T02:44:47.726Z,46.65
2023-02-22T02:47:14.354Z,43.45
2023-02-22T02:49:43.437Z,44.90
2023-02-22T02:52:10.152Z,44.67
2023-02-22T02:54:37.701Z,44.85
2023-02-22T02:57:04.415Z,44.90
2023-02-22T02:59:32.207Z,44.35
2023-02-22T03:02:01.312Z,44.13
2023-02-22T03:04:30.311Z,46.17
2023-02-22T03:07:11.598Z,49.72
2023-02-22T03:09:37.866Z,44.03
2023-02-22T03:12:33.656Z,46.30
2023-02-22T03:15:12.673Z,50.45
2023-02-22T03:17:53.981Z,47.00
2023-02-22T03:20:20.238Z,50.20
2023-02-22T03:22:50.876Z,56.58
2023-02-22T03:27:46.435Z,47.42
2023-02-22T03:30:17.418Z,52.83
2023-02-22T03:32:46.182Z,47.38
2023-02-22T03:35:16.398Z,55.22
2023-02-22T03:37:45.327Z,53.30
2023-02-22T03:40:14.864Z,52.47
2023-02-22T03:42:45.572Z,50.42
2023-02-22T03:47:43.265Z,47.95
2023-02-22T03:50:15.170Z,48.20
2023-02-22T03:52:43.097Z,49.42
2023-02-22T03:55:11.242Z,61.08
2023-02-22T03:57:39.111Z,57.38
2023-02-22T04:00:07.176Z,56.13
2023-02-22T04:02:34.886Z,55.95
2023-02-22T04:05:01.180Z,56.22
2023-02-22T04:07:27.521Z,59.58
2023-02-22T04:09:53.750Z,52.22
2023-02-22T04:12:20.054Z,56.45
2023-02-22T04:14:46.345Z,57.90
2023-02-22T04:17:12.596Z,58.33
2023-02-22T04:19:38.864Z,58.50
2023-02-22T04:22:05.144Z,62.67
2023-02-22T04:24:31.479Z,60.63
2023-02-22T04:26:57.776Z,56.40
2023-02-22T04:29:24.054Z,63.10
2023-02-22T04:31:50.455Z,62.08
2023-02-22T04:34:16.714Z,61.30
2023-02-22T04:36:44.591Z,66.15
2023-02-22T04:39:10.975Z,62.25
2023-02-22T04:41:37.275Z,62.05
2023-02-22T04:44:03.616Z,66.70
2023-02-22T04:46:31.377Z,62.00
2023-02-22T04:48:57.719Z,65.72
2023-02-22T04:51:24.261Z,63.20
2023-02-22T04:53:50.552Z,66.55
2023-02-22T04:56:17.520Z,65.50
2023-02-22T04:58:43.932Z,71.55
2023-02-22T05:01:10.275Z,61.72
2023-02-22T05:03:39.448Z,67.00
2023-02-22T05:06:06.007Z,70.35
2023-02-22T05:08:32.260Z,68.43
2023-02-22T05:10:58.605Z,69.13
2023-02-22T05:13:24.868Z,74.03
2023-02-22T05:15:51.125Z,73.63
2023-02-22T05:18:17.465Z,72.50
2023-02-22T05:20:43.745Z,69.07
2023-02-22T05:23:10.038Z,67.40
2023-02-22T05:25:36.333Z,76.97
2023-02-22T05:28:03.938Z,80.68
2023-02-22T05:30:32.500Z,80.32
2023-02-22T05:32:59.516Z,89.45
2023-02-22T05:35:26.310Z,87.07
2023-02-22T05:37:52.794Z,89.95
2023-02-22T05:40:20.807Z,92.00
2023-02-22T05:42:48.994Z,93.35
2023-02-22T05:45:16.704Z,86.82
2023-02-22T05:47:43.004Z,90.38
2023-02-22T05:50:09.594Z,102.13
2023-02-22T05:52:35.944Z,102.38
2023-02-22T05:55:02.257Z,102.07
2023-02-22T05:57:28.603Z,107.82
2023-02-22T05:59:54.842Z,110.10
2023-02-22T06:02:21.137Z,100.55
2023-02-22T06:04:47.397Z,99.78
2023-02-22T06:07:14.377Z,108.32
2023-02-22T06:09:40.805Z,92.40
2023-02-22T06:12:07.400Z,99.43
2023-02-22T06:14:33.667Z,95.38
2023-02-22T06:17:00.903Z,97.30
2023-02-22T06:19:27.964Z,105.95
2023-02-22T06:21:55.500Z,98.68
2023-02-22T06:24:22.697Z,101.43
2023-02-22T06:26:58.886Z,102.43
2023-02-22T06:29:25.956Z,106.57
2023-02-22T06:31:52.422Z,95.80
2023-02-22T06:34:19.465Z,104.30
2023-02-22T06:36:47.923Z,121.55
2023-02-22T06:39:18.805Z,114.05
2023-02-22T06:41:45.911Z,116.53
2023-02-22T06:44:13.127Z,116.63
2023-02-22T06:46:39.651Z,104.25
2023-02-22T06:49:06.008Z,92.72
2023-02-22T06:51:36.956Z,90.50
2023-02-22T06:54:04.439Z,80.90
2023-02-22T06:56:30.738Z,92.97
2023-02-22T06:58:56.992Z,94.32
2023-02-22T07:01:23.268Z,104.65
2023-02-22T07:03:50.077Z,91.72
2023-02-22T07:06:16.364Z,93.30
2023-02-22T07:08:42.681Z,85.40
2023-02-22T07:11:08.915Z,99.75
2023-02-22T07:13:35.229Z,94.63
2023-02-22T07:16:01.551Z,82.57
2023-02-22T07:18:29.407Z,98.22
2023-02-22T07:20:58.520Z,93.70
2023-02-22T07:23:24.815Z,110.57
2023-02-22T07:25:51.206Z,108.00
2023-02-22T07:28:17.469Z,101.05
2023-02-22T07:30:43.891Z,100.15
2023-02-22T07:33:11.821Z,127.82
2023-02-22T07:35:43.026Z,96.25
2023-02-22T07:38:09.387Z,123.03
2023-02-22T07:40:36.449Z,164.75
2023-02-22T07:43:06.766Z,166.52
2023-02-22T07:48:00.678Z,115.10
2023-02-22T07:50:32.739Z,103.63
2023-02-22T07:53:00.435Z,137.50
2023-02-22T07:55:27.840Z,139.32
2023-02-22T07:57:55.372Z,106.88
2023-02-22T08:00:40.447Z,89.80
2023-02-22T08:03:11.391Z,87.32
2023-02-22T08:05:38.423Z,73.70
2023-02-22T08:08:06.020Z,77.38
2023-02-22T08:10:32.939Z,74.82
2023-02-22T08:12:59.328Z,77.65
2023-02-22T08:15:29.821Z,70.10
2023-02-22T08:17:57.148Z,70.72
2023-02-22T08:20:23.534Z,73.97
2023-02-22T08:22:49.932Z,71.75
2023-02-22T08:25:17.021Z,70.20
2023-02-22T08:27:43.835Z,62.92
2023-02-22T08:30:17.810Z,67.32
2023-02-22T08:32:45.315Z,60.33
2023-02-22T08:35:13.601Z,62.10
2023-02-22T08:37:47.457Z,59.55
2023-02-22T08:40:15.029Z,61.38
2023-02-22T08:42:41.409Z,58.42
2023-02-22T08:45:08.017Z,64.30
2023-02-22T08:47:34.322Z,59.20
2023-02-22T08:50:00.751Z,67.45
2023-02-22T08:52:27.084Z,65.43
2023-02-22T08:54:53.337Z,66.25
2023-02-22T08:57:21.665Z,57.80
2023-02-22T08:59:48.255Z,60.25
2023-02-22T09:02:20.367Z,62.72
2023-02-22T09:04:47.962Z,63.63
2023-02-22T09:07:15.209Z,61.45
2023-02-22T09:09:44.600Z,60.53
2023-02-22T09:12:11.128Z,64.75
2023-02-22T09:14:37.503Z,61.90
2023-02-22T09:17:05.947Z,58.92
2023-02-22T09:19:32.294Z,63.60
2023-02-22T09:22:00.011Z,57.38
2023-02-22T09:24:27.048Z,56.83
2023-02-22T09:26:56.393Z,62.05
2023-02-22T09:29:26.609Z,59.90
2023-02-22T09:31:54.597Z,55.20
2023-02-22T09:34:22.613Z,60.17
2023-02-22T09:36:49.716Z,61.22
2023-02-22T09:39:17.242Z,61.72
2023-02-22T09:42:06.858Z,55.25
2023-02-22T09:44:53.665Z,59.92
2023-02-22T09:47:32.192Z,54.17
2023-02-22T09:50:02.360Z,50.70
2023-02-22T09:52:31.252Z,53.53
2023-02-22T09:55:05.497Z,50.85
2023-02-22T09:57:35.052Z,59.20
2023-02-22T10:00:16.436Z,49.38
2023-02-22T10:02:52.374Z,48.75
2023-02-22T10:05:27.935Z,47.15
2023-02-22T10:07:58.032Z,42.80
2023-02-22T10:10:25.327Z,38.95
2023-02-22T10:12:59.167Z,46.03
2023-02-22T10:15:45.679Z,43.10
2023-02-22T10:18:30.596Z,42.90
2023-02-22T10:21:02.452Z,39.65
2023-02-22T10:23:36.515Z,41.88
2023-02-22T10:26:14.810Z,42.08
2023-02-22T10:28:43.951Z,41.72
2023-02-22T10:31:16.690Z,45.33
2023-02-22T10:33:46.739Z,41.85
2023-02-22T10:36:18.724Z,42.90
2023-02-22T10:38:54.000Z,43.53
2023-02-22T10:41:27.088Z,41.03
2023-02-22T10:43:53.413Z,45.08
2023-02-22T10:46:21.186Z,48.63
2023-02-22T10:48:48.708Z,48.78
2023-02-22T10:51:15.067Z,47.45
2023-02-22T10:53:41.451Z,43.90
2023-02-22T10:56:08.009Z,41.00
2023-02-22T10:58:52.016Z,46.60
2023-02-22T11:01:23.620Z,49.97
2023-02-22T11:04:00.787Z,40.38
2023-02-22T11:06:27.483Z,53.55
2023-02-22T11:09:14.112Z,43.67
2023-02-22T11:11:41.840Z,47.65
2023-02-22T11:14:10.707Z,51.03
2023-02-22T11:17:03.350Z,46.85
2023-02-22T11:19:30.890Z,50.42
2023-02-22T11:21:59.589Z,48.97
2023-02-22T11:24:30.370Z,51.55
2023-02-22T11:27:01.473Z,58.08
2023-02-22T11:29:37.550Z,54.88
2023-02-22T11:32:22.131Z,51.08
2023-02-22T11:35:03.565Z,56.97
2023-02-22T11:37:39.040Z,56.45
2023-02-22T11:40:05.310Z,51.28
2023-02-22T11:42:31.573Z,58.35
2023-02-22T11:45:11.559Z,53.72
2023-02-22T11:47:54.498Z,52.28
2023-02-22T11:50:28.406Z,53.88
2023-02-22T11:53:22.072Z,55.03
2023-02-22T11:56:07.903Z,52.47
2023-02-22T11:58:54.119Z,56.00
2023-02-22T12:01:29.843Z,56.38
2023-02-22T12:03:58.309Z,53.78
2023-02-22T12:06:27.696Z,58.72
2023-02-22T12:09:14.062Z,54.03
2023-02-22T12:12:03.554Z,56.45
2023-02-22T12:14:41.977Z,54.38
2023-02-22T12:17:26.938Z,62.20
2023-02-22T12:20:10.112Z,55.80
2023-02-22T12:22:39.263Z,59.35
2023-02-22T12:25:12.132Z,52.90
2023-02-22T12:27:45.046Z,58.22
2023-02-22T12:30:34.006Z,49.25
2023-02-22T12:33:04.770Z,54.10
2023-02-22T12:35:37.583Z,59.30
2023-02-22T12:38:09.978Z,51.30
2023-02-22T12:41:15.020Z,50.72
2023-02-22T12:43:44.917Z,52.58
2023-02-22T12:46:37.210Z,47.77
2023-02-22T12:49:23.738Z,56.90
2023-02-22T12:51:57.294Z,46.92
2023-02-22T12:54:36.626Z,47.35
2023-02-22T12:57:12.059Z,51.42
2023-02-22T12:59:44.856Z,51.47
2023-02-22T13:02:23.368Z,47.03
2023-02-22T13:04:49.712Z,43.97
2023-02-22T13:07:15.994Z,42.15
2023-02-22T13:09:42.303Z,47.25
2023-02-22T13:12:37.604Z,46.47
2023-02-22T13:15:10.956Z,40.13
2023-02-22T13:17:40.359Z,45.85
2023-02-22T13:20:23.280Z,46.22
2023-02-22T13:22:52.208Z,44.10
2023-02-22T13:25:18.611Z,44.50
2023-02-22T13:28:22.994Z,36.88
2023-02-22T13:31:08.917Z,37.00
2023-02-22T13:33:46.618Z,38.28
2023-02-22T13:36:15.875Z,35.55
2023-02-22T13:38:57.521Z,32.40
2023-02-22T13:41:38.905Z,40.65
2023-02-22T13:44:23.681Z,35.22
2023-02-22T13:47:08.868Z,35.72
2023-02-22T13:49:38.695Z,34.35
2023-02-22T13:52:09.331Z,36.03
2023-02-22T13:57:03.030Z,39.53
2023-02-22T13:59:37.146Z,37.75
2023-02-22T14:02:04.693Z,35.72
2023-02-22T14:04:30.975Z,37.10
2023-02-22T14:07:00.941Z,37.17
2023-02-22T14:10:02.515Z,37.13
2023-02-22T14:12:34.904Z,32.47
2023-02-22T14:15:18.734Z,34.78
2023-02-22T14:17:56.997Z,35.58
2023-02-22T14:20:31.415Z,40.08
2023-02-22T14:23:17.750Z,35.38
2023-02-22T14:25:44.635Z,37.42
2023-02-22T14:28:31.328Z,35.53
2023-02-22T14:31:29.322Z,34.47
2023-02-22T14:33:56.204Z,31.23
2023-02-22T14:36:34.328Z,31.15
2023-02-22T14:39:10.629Z,28.88
2023-02-22T14:41:37.893Z,32.00
2023-02-22T14:44:05.472Z,30.55
2023-02-22T14:46:34.646Z,31.58
2023-02-22T14:49:04.133Z,32.35
2023-02-22T14:51:53.469Z,33.53
2023-02-22T14:54:28.860Z,27.85
2023-02-22T14:56:59.773Z,31.30
2023-02-22T14:59:27.168Z,30.83
2023-02-22T15:02:11.823Z,30.38
2023-02-22T15:04:38.858Z,32.55
2023-02-22T15:07:18.435Z,35.47
2023-02-22T15:09:48.236Z,28.05
2023-02-22T15:12:23.093Z,27.87
2023-02-22T15:14:49.710Z,29.70
2023-02-22T15:17:21.378Z,28.27
2023-02-22T15:19:48.776Z,27.77
2023-02-22T15:22:19.804Z,30.58
2023-02-22T15:24:48.380Z,32.85
2023-02-22T15:27:15.840Z,34.92
2023-02-22T15:29:46.344Z,30.73
2023-02-22T15:32:49.843Z,30.20
2023-02-22T15:35:26.597Z,27.92
2023-02-22T15:38:03.532Z,28.98
2023-02-22T15:40:33.268Z,31.63
2023-02-22T15:43:00.987Z,32.23
2023-02-22T15:45:28.291Z,29.63
2023-02-22T15:47:55.216Z,30.55
2023-02-22T15:50:25.499Z,28.23
2023-02-22T15:52:57.815Z,29.45
2023-02-22T15:55:40.855Z,34.40
2023-02-22T15:58:11.799Z,29.13
2023-02-22T16:00:40.467Z,29.98
2023-02-22T16:03:11.148Z,39.85
2023-02-22T16:08:04.047Z,44.13
2023-02-22T16:10:33.344Z,30.15
2023-02-22T16:13:31.648Z,28.65
2023-02-22T16:16:02.040Z,34.88
2023-02-22T16:18:30.168Z,34.33
2023-02-22T16:21:00.642Z,30.42
2023-02-22T16:23:27.650Z,30.77
2023-02-22T16:26:07.717Z,36.28
2023-02-22T16:28:35.649Z,36.85
2023-02-22T16:31:02.585Z,39.95
2023-02-22T16:33:33.850Z,35.08
2023-02-22T16:36:03.780Z,36.85
2023-02-22T16:38:33.940Z,34.77
2023-02-22T16:41:00.252Z,38.45
2023-02-22T16:43:29.432Z,32.80
2023-02-22T16:45:55.866Z,35.72
2023-02-22T16:48:23.821Z,40.35
2023-02-22T16:50:51.514Z,35.63
2023-02-22T16:53:19.979Z,40.28
2023-02-22T16:55:50.403Z,35.05
2023-02-22T16:58:18.852Z,37.28
2023-02-22T17:00:45.454Z,39.28
2023-02-22T17:03:14.898Z,39.08
2023-02-22T17:05:41.221Z,35.92
2023-02-22T17:08:07.533Z,39.67
2023-02-22T17:10:34.064Z,39.72
2023-02-22T17:13:07.229Z,39.90
2023-02-22T17:15:39.319Z,41.10
2023-02-22T17:18:14.035Z,41.85
2023-02-22T17:20:40.358Z,36.30
2023-02-22T17:23:10.483Z,40.05
2023-02-22T17:25:38.634Z,46.13
2023-02-22T17:28:05.477Z,42.47
2023-02-22T17:30:32.808Z,42.05
2023-02-22T17:33:03.677Z,40.92
2023-02-22T17:35:36.578Z,44.00
2023-02-22T17:38:06.636Z,45.67
2023-02-22T17:40:33.824Z,52.22
2023-02-22T17:43:01.799Z,50.42
2023-02-22T17:45:28.340Z,52.72
2023-02-22T17:47:55.042Z,56.42
2023-02-22T17:50:22.332Z,58.35
2023-02-22T17:52:51.476Z,58.67
2023-02-22T17:55:18.713Z,58.95
2023-02-22T17:57:45.691Z,59.45
2023-02-22T18:00:15.591Z,57.25
2023-02-22T18:02:42.599Z,61.88
2023-02-22T18:05:10.102Z,60.65
2023-02-22T18:07:36.495Z,63.95
2023-02-22T18:10:05.312Z,63.40
2023-02-22T18:12:32.151Z,66.72
2023-02-22T18:14:59.205Z,64.70
2023-02-22T18:17:25.481Z,69.32
2023-02-22T18:19:51.908Z,70.20
2023-02-22T18:22:18.136Z,66.85
2023-02-22T18:24:44.428Z,73.88
2023-02-22T18:27:11.815Z,70.70
2023-02-22T18:29:38.114Z,68.43
2023-02-22T18:32:04.481Z,68.65
2023-02-22T18:34:30.715Z,78.05
2023-02-22T18:36:57.008Z,74.65
2023-02-22T18:39:23.267Z,79.22
2023-02-22T18:41:49.598Z,88.30
2023-02-22T18:44:16.184Z,83.93
2023-02-22T18:46:43.483Z,90.75
2023-02-22T18:49:13.657Z,91.45
2023-02-22T18:51:43.397Z,85.95
2023-02-22T18:54:11.349Z,85.63
2023-02-22T18:56:39.632Z,96.10
2023-02-22T18:59:07.852Z,90.75
2023-02-22T19:01:38.684Z,101.25
2023-02-22T19:04:05.785Z,91.32
2023-02-22T19:06:34.934Z,95.75
2023-02-22T19:09:01.764Z,98.05
2023-02-22T19:11:28.138Z,100.85
2023-02-22T19:13:57.442Z,103.30
2023-02-22T19:16:25.241Z,101.35
2023-02-22T19:18:52.548Z,97.70
2023-02-22T19:21:19.995Z,98.65
2023-02-22T19:23:47.828Z,104.60
2023-02-22T19:26:24.632Z,97.32
2023-02-22T19:28:52.170Z,96.68
2023-02-22T19:31:22.006Z,99.57
2023-02-22T19:33:52.413Z,102.53
2023-02-22T19:36:19.625Z,96.63
2023-02-22T19:38:46.166Z,98.13
2023-02-22T19:41:15.681Z,100.57
2023-02-22T19:43:42.201Z,103.63
2023-02-22T19:46:08.478Z,103.22
2023-02-22T19:48:34.732Z,103.68
2023-02-22T19:51:06.377Z,106.72
2023-02-22T19:53:36.637Z,102.50
2023-02-22T19:56:10.266Z,102.03
2023-02-22T19:58:37.515Z,94.50
2023-02-22T20:01:11.437Z,97.25
2023-02-22T20:03:38.629Z,90.35
2023-02-22T20:06:08.985Z,92.38
2023-02-22T20:08:36.616Z,99.72
2023-02-22T20:11:03.132Z,105.80
2023-02-22T20:13:29.557Z,99.72
2023-02-22T20:15:55.826Z,96.57
2023-02-22T20:18:22.887Z,92.82
2023-02-22T20:20:49.229Z,92.82
2023-02-22T20:23:15.549Z,100.28
2023-02-22T20:25:42.408Z,100.47
2023-02-22T20:28:10.571Z,89.05
2023-02-22T20:30:37.404Z,91.90
2023-02-22T20:33:05.038Z,91.43
2023-02-22T20:35:33.922Z,95.70
2023-02-22T20:38:01.324Z,93.80
2023-02-22T20:40:27.550Z,94.22
2023-02-22T20:42:53.792Z,89.72
2023-02-22T20:45:20.164Z,94.18
2023-02-22T20:47:47.679Z,100.50
2023-02-22T20:50:14.090Z,100.72
2023-02-22T20:52:40.455Z,99.32
2023-02-22T20:55:11.370Z,103.95
2023-02-22T20:57:37.955Z,100.07
2023-02-22T21:00:04.799Z,98.80
2023-02-22T21:02:31.071Z,97.10
2023-02-22T21:04:58.047Z,95.53
2023-02-22T21:07:24.503Z,96.13
2023-02-22T21:09:50.835Z,94.18
2023-02-22T21:12:17.131Z,95.70
2023-02-22T21:14:46.189Z,99.15
2023-02-22T21:17:12.506Z,98.63
2023-02-22T21:19:38.849Z,95.55
2023-02-22T21:22:08.100Z,91.68
2023-02-22T21:24:36.124Z,100.20
2023-02-22T21:27:02.665Z,99.13
2023-02-22T21:29:29.330Z,101.03
2023-02-22T21:31:56.047Z,97.93
2023-02-22T21:34:22.772Z,93.38
2023-02-22T21:36:50.455Z,95.25
2023-02-22T21:39:19.516Z,94.55
2023-02-22T21:41:47.440Z,95.82
2023-02-22T21:44:13.753Z,96.25
2023-02-22T21:46:40.098Z,92.15
2023-02-22T21:49:06.686Z,96.35
2023-02-22T21:51:33.490Z,95.00
2023-02-22T21:54:01.004Z,94.30
2023-02-22T21:56:27.973Z,99.15
2023-02-22T21:59:02.844Z,86.82
2023-02-22T22:01:30.157Z,87.55
2023-02-22T22:03:59.559Z,96.78
2023-02-22T22:06:27.866Z,93.10
2023-02-22T22:08:54.604Z,92.03
2023-02-22T22:11:21.257Z,86.82
2023-02-22T22:13:49.132Z,77.70
2023-02-22T22:16:16.644Z,80.78
2023-02-22T22:18:43.717Z,82.65
2023-02-22T22:21:11.271Z,85.40
2023-02-22T22:23:39.021Z,79.32
2023-02-22T22:26:10.801Z,75.95
2023-02-22T22:28:40.841Z,80.95
2023-02-22T22:31:07.828Z,90.03
2023-02-22T22:33:34.751Z,82.35
2023-02-22T22:36:01.030Z,85.38
2023-02-22T22:38:28.953Z,88.78
2023-02-22T22:40:59.039Z,75.30
2023-02-22T22:43:25.331Z,83.00
2023-02-22T22:45:51.592Z,82.40
2023-02-22T22:48:17.831Z,80.70
2023-02-22T22:50:46.395Z,87.45
2023-02-22T22:53:12.916Z,90.80
2023-02-22T22:55:40.805Z,86.70
2023-02-22T22:58:09.968Z,87.47
2023-02-22T23:00:37.678Z,84.60
2023-02-22T23:03:05.629Z,87.60
2023-02-22T23:05:36.964Z,92.53
2023-02-22T23:08:04.647Z,98.68
2023-02-22T23:10:31.748Z,92.57
2023-02-22T23:12:58.050Z,93.88
2023-02-22T23:15:25.192Z,86.78
2023-02-22T23:17:55.625Z,88.63
2023-02-22T23:20:23.092Z,94.07
2023-02-22T23:22:49.557Z,85.90
2023-02-22T23:25:15.968Z,97.45
2023-02-22T23:27:42.683Z,87.60
2023-02-22T23:30:14.820Z,85.50
2023-02-22T23:32:47.838Z,86.75
2023-02-22T23:35:14.945Z,87.72
2023-02-22T23:37:41.955Z,91.57
2023-02-22T23:40:20.528Z,83.82
2023-02-22T23:42:49.773Z,93.88
2023-02-22T23:45:22.781Z,89.43
2023-02-22T23:48:01.421Z,87.10
2023-02-22T23:50:29.072Z,91.25
2023-02-22T23:52:56.990Z,86.30
2023-02-22T23:55:24.233Z,91.00
2023-02-22T23:57:50.574Z,82.30
